createdAt,value
2022-08-03T00:02:29.865Z,21.37
2022-08-03T00:05:33.562Z,21.37
2022-08-03T00:08:37.644Z,21.34
2022-08-03T00:11:42.396Z,21.38
2022-08-03T00:14:44.289Z,21.33
2022-08-03T00:17:53.029Z,21.30
2022-08-03T00:20:56.145Z,21.24
2022-08-03T00:23:58.043Z,21.17
2022-08-03T00:27:00.987Z,21.15
2022-08-03T00:30:04.070Z,21.15
2022-08-03T00:33:06.798Z,21.11
2022-08-03T00:36:10.201Z,21.07
2022-08-03T00:39:12.142Z,21.02
2022-08-03T00:42:15.075Z,20.95
2022-08-03T00:45:22.388Z,20.93
2022-08-03T00:48:32.889Z,20.87
2022-08-03T00:51:35.473Z,20.87
2022-08-03T00:54:40.727Z,20.86
2022-08-03T00:57:43.597Z,20.84
2022-08-03T01:00:48.044Z,20.80
2022-08-03T01:03:54.329Z,20.75
2022-08-03T01:07:11.069Z,20.74
2022-08-03T01:10:37.142Z,20.70
2022-08-03T01:14:04.476Z,20.67
2022-08-03T01:17:25.616Z,20.68
2022-08-03T01:20:33.833Z,20.59
2022-08-03T01:24:02.492Z,20.55
2022-08-03T01:27:17.738Z,20.52
2022-08-03T01:30:19.953Z,20.49
2022-08-03T01:33:44.250Z,20.45
2022-08-03T01:36:52.667Z,20.44
2022-08-03T01:39:58.355Z,20.44
2022-08-03T01:43:06.156Z,20.42
2022-08-03T01:46:13.868Z,20.37
2022-08-03T01:49:18.999Z,20.36
2022-08-03T01:52:22.191Z,20.32
2022-08-03T01:55:28.281Z,20.33
2022-08-03T01:58:32.297Z,20.30
2022-08-03T02:02:28.515Z,20.26
2022-08-03T02:05:01.201Z,20.25
2022-08-03T02:08:05.426Z,20.26
2022-08-03T02:11:07.998Z,20.27
2022-08-03T02:14:11.462Z,20.29
2022-08-03T02:17:15.428Z,20.30
2022-08-03T02:20:18.460Z,20.28
2022-08-03T02:23:20.368Z,20.29
2022-08-03T02:26:24.506Z,20.33
2022-08-03T02:29:39.761Z,20.36
2022-08-03T02:32:51.730Z,20.38
2022-08-03T02:35:54.373Z,20.37
2022-08-03T02:39:00.091Z,20.35
2022-08-03T02:42:08.765Z,20.33
2022-08-03T02:45:15.943Z,20.33
2022-08-03T02:48:22.922Z,20.30
2022-08-03T02:51:27.937Z,20.32
2022-08-03T02:54:32.940Z,20.32
2022-08-03T02:57:37.027Z,20.29
2022-08-03T03:00:40.019Z,20.26
2022-08-03T03:03:44.753Z,20.25
2022-08-03T03:06:50.998Z,20.31
2022-08-03T03:09:54.445Z,20.36
2022-08-03T03:12:58.209Z,20.39
2022-08-03T03:16:02.671Z,20.37
2022-08-03T03:19:05.146Z,20.42
2022-08-03T03:22:08.509Z,20.45
2022-08-03T03:25:10.399Z,20.54
2022-08-03T03:28:12.597Z,20.60
2022-08-03T03:31:14.691Z,20.64
2022-08-03T03:34:17.244Z,20.68
2022-08-03T03:37:19.070Z,20.75
2022-08-03T03:40:22.042Z,20.85
2022-08-03T03:43:25.032Z,20.91
2022-08-03T03:46:27.044Z,20.96
2022-08-03T03:49:29.369Z,21.03
2022-08-03T03:52:32.039Z,21.05
2022-08-03T03:55:34.078Z,21.11
2022-08-03T03:58:36.954Z,21.18
2022-08-03T04:01:39.504Z,21.25
2022-08-03T04:05:00.496Z,21.39
2022-08-03T04:08:41.312Z,21.57
2022-08-03T04:11:58.746Z,21.80
2022-08-03T04:15:02.517Z,21.87
2022-08-03T04:18:07.221Z,22.01
2022-08-03T04:21:13.499Z,22.19
2022-08-03T04:24:16.346Z,22.42
2022-08-03T04:27:23.614Z,22.69
2022-08-03T04:30:28.375Z,22.93
2022-08-03T04:33:34.915Z,23.17
2022-08-03T04:36:43.772Z,23.39
2022-08-03T04:39:49.691Z,23.65
2022-08-03T04:42:55.904Z,23.86
2022-08-03T04:45:59.347Z,23.96
2022-08-03T04:49:02.316Z,24.08
2022-08-03T04:52:07.313Z,24.07
2022-08-03T04:55:09.652Z,24.19
2022-08-03T04:58:12.730Z,24.38
2022-08-03T05:01:16.575Z,24.39
2022-08-03T05:04:19.687Z,24.43
2022-08-03T05:07:25.200Z,24.54
2022-08-03T05:10:27.886Z,24.48
2022-08-03T05:13:29.862Z,24.61
2022-08-03T05:16:32.073Z,24.90
2022-08-03T05:19:33.908Z,25.17
2022-08-03T05:22:35.779Z,25.40
2022-08-03T05:25:39.325Z,25.58
2022-08-03T05:28:49.975Z,25.80
2022-08-03T05:31:53.372Z,25.94
2022-08-03T05:34:55.420Z,26.33
2022-08-03T05:37:57.335Z,26.65
2022-08-03T05:41:22.399Z,26.92
2022-08-03T05:44:22.502Z,26.65
2022-08-03T05:47:24.468Z,26.46
2022-08-03T05:50:26.309Z,26.30
2022-08-03T05:53:28.266Z,26.12
2022-08-03T05:56:30.130Z,25.89
2022-08-03T05:59:39.223Z,25.56
2022-08-03T06:02:54.386Z,25.40
2022-08-03T06:06:00.347Z,25.24
2022-08-03T06:09:02.571Z,25.22
2022-08-03T06:12:04.589Z,25.11
2022-08-03T06:15:07.860Z,25.18
2022-08-03T06:18:13.809Z,25.29
2022-08-03T06:21:16.430Z,25.50
2022-08-03T06:24:18.500Z,25.62
2022-08-03T06:27:28.328Z,25.81
2022-08-03T06:30:39.760Z,26.07
2022-08-03T06:33:48.462Z,26.53
2022-08-03T06:37:04.441Z,26.80
2022-08-03T06:40:06.653Z,26.72
2022-08-03T06:43:12.462Z,26.58
2022-08-03T06:46:14.832Z,26.28
2022-08-03T06:49:24.433Z,26.24
2022-08-03T06:52:37.896Z,26.35
2022-08-03T06:55:42.400Z,26.35
2022-08-03T06:58:44.462Z,26.24
2022-08-03T07:01:46.454Z,25.99
2022-08-03T07:04:50.485Z,26.05
2022-08-03T07:07:56.818Z,26.26
2022-08-03T07:10:58.762Z,26.29
2022-08-03T07:14:00.553Z,26.31
2022-08-03T07:17:11.417Z,26.51
2022-08-03T07:20:15.297Z,26.86
2022-08-03T07:36:50.692Z,27.93
2022-08-03T07:39:52.751Z,27.96
2022-08-03T07:42:54.947Z,28.18
2022-08-03T07:45:56.850Z,28.27
2022-08-03T07:48:58.781Z,28.23
2022-08-03T07:52:19.961Z,28.56
2022-08-03T07:55:25.416Z,28.77
2022-08-03T07:58:27.495Z,28.54
2022-08-03T08:01:29.993Z,28.14
2022-08-03T08:04:32.075Z,27.93
2022-08-03T08:07:34.450Z,27.68
2022-08-03T08:10:36.658Z,27.52
2022-08-03T08:13:38.783Z,27.58
2022-08-03T08:16:40.899Z,27.67
2022-08-03T08:19:48.305Z,27.77
2022-08-03T08:23:02.894Z,27.84
2022-08-03T08:26:07.992Z,27.84
2022-08-03T08:29:10.404Z,27.77
2022-08-03T08:32:14.995Z,27.74
2022-08-03T08:35:18.466Z,27.85
2022-08-03T08:38:20.658Z,28.32
2022-08-03T08:41:22.507Z,28.63
2022-08-03T08:44:24.449Z,28.67
2022-08-03T08:47:30.128Z,29.01
2022-08-03T08:50:56.583Z,29.33
2022-08-03T08:54:04.031Z,29.43
2022-08-03T08:57:21.350Z,29.25
2022-08-03T09:00:30.947Z,29.26
2022-08-03T09:03:35.803Z,29.52
2022-08-03T09:06:37.748Z,29.51
2022-08-03T09:10:10.218Z,29.50
2022-08-03T09:13:01.605Z,29.34
2022-08-03T09:16:18.635Z,29.23
2022-08-03T09:19:21.777Z,28.94
2022-08-03T09:22:26.190Z,28.80
2022-08-03T09:25:34.420Z,29.05
2022-08-03T09:28:57.986Z,29.28
2022-08-03T09:32:03.879Z,29.37
2022-08-03T09:35:09.551Z,29.34
2022-08-03T09:38:14.047Z,29.16
2022-08-03T09:41:21.015Z,29.46
2022-08-03T09:44:37.139Z,29.52
2022-08-03T09:47:45.074Z,29.94
2022-08-03T09:51:14.041Z,29.85
2022-08-03T09:54:30.894Z,29.52
2022-08-03T09:57:33.612Z,29.10
2022-08-03T10:00:54.148Z,29.21
2022-08-03T10:04:04.212Z,29.28
2022-08-03T10:07:11.023Z,29.22
2022-08-03T10:10:30.900Z,29.37
2022-08-03T10:13:33.941Z,29.24
2022-08-03T10:16:38.862Z,29.08
2022-08-03T10:19:43.712Z,29.15
2022-08-03T10:22:47.292Z,29.09
2022-08-03T10:25:53.394Z,28.99
2022-08-03T10:28:59.719Z,28.84
2022-08-03T10:32:06.158Z,28.72
2022-08-03T10:35:19.089Z,28.71
2022-08-03T10:38:30.566Z,28.90
2022-08-03T10:41:37.734Z,29.24
2022-08-03T10:44:42.408Z,29.72
2022-08-03T10:47:45.147Z,29.61
2022-08-03T10:50:49.729Z,29.39
2022-08-03T10:53:55.536Z,29.17
2022-08-03T10:57:16.413Z,29.36
2022-08-03T11:00:22.861Z,29.80
2022-08-03T11:03:24.922Z,30.05
2022-08-03T11:06:27.534Z,30.43
2022-08-03T11:09:43.558Z,30.51
2022-08-03T11:12:47.286Z,30.37
2022-08-03T11:15:52.101Z,29.96
2022-08-03T11:18:59.845Z,29.97
2022-08-03T11:22:01.901Z,29.95
2022-08-03T11:25:04.649Z,29.93
2022-08-03T11:28:27.155Z,30.02
2022-08-03T11:31:49.442Z,29.77
2022-08-03T11:35:24.017Z,29.45
2022-08-03T11:38:26.298Z,29.37
2022-08-03T11:41:44.923Z,29.79
2022-08-03T11:44:48.231Z,30.04
2022-08-03T11:47:58.566Z,30.19
2022-08-03T11:51:02.140Z,30.07
2022-08-03T11:54:06.514Z,29.83
2022-08-03T11:57:08.635Z,29.98
2022-08-03T12:00:31.494Z,30.42
2022-08-03T12:03:34.884Z,30.49
2022-08-03T12:06:55.487Z,29.94
2022-08-03T12:10:10.256Z,29.64
2022-08-03T12:13:56.609Z,29.48
2022-08-03T12:16:34.319Z,29.43
2022-08-03T12:19:43.463Z,29.60
2022-08-03T12:22:45.507Z,29.67
2022-08-03T12:25:47.998Z,29.58
2022-08-03T12:28:51.607Z,29.41
2022-08-03T12:31:53.714Z,29.20
2022-08-03T12:35:01.939Z,29.03
2022-08-03T12:38:04.167Z,28.88
2022-08-03T12:41:11.970Z,28.77
2022-08-03T12:44:13.963Z,28.64
2022-08-03T12:47:16.517Z,28.54
2022-08-03T12:50:35.126Z,28.52
2022-08-03T12:53:38.410Z,28.36
2022-08-03T12:57:07.173Z,28.34
2022-08-03T13:00:19.964Z,28.26
2022-08-03T13:03:42.672Z,28.14
2022-08-03T13:06:45.620Z,28.11
2022-08-03T13:09:55.534Z,28.06
2022-08-03T13:13:00.006Z,28.07
2022-08-03T13:16:02.534Z,28.01
2022-08-03T13:32:16.103Z,28.07
2022-08-03T13:35:18.008Z,27.97
2022-08-03T13:38:21.665Z,27.77
2022-08-03T13:41:31.232Z,27.85
2022-08-03T13:44:33.953Z,27.70
2022-08-03T13:47:37.003Z,27.53
2022-08-03T13:50:43.085Z,27.51
2022-08-03T13:53:45.213Z,27.42
2022-08-03T13:56:52.714Z,27.37
2022-08-03T13:59:54.972Z,27.50
2022-08-03T14:03:14.713Z,27.59
2022-08-03T14:06:17.039Z,27.50
2022-08-03T14:09:18.757Z,26.87
2022-08-03T14:12:20.877Z,26.51
2022-08-03T14:15:22.865Z,26.22
2022-08-03T14:18:27.844Z,25.92
2022-08-03T14:21:34.634Z,25.88
2022-08-03T14:24:36.559Z,25.91
2022-08-03T14:27:38.365Z,25.91
2022-08-03T14:30:40.280Z,25.97
2022-08-03T14:33:42.239Z,25.86
2022-08-03T14:36:44.144Z,25.92
2022-08-03T14:40:02.365Z,25.67
2022-08-03T14:43:04.587Z,25.77
2022-08-03T14:46:07.125Z,25.72
2022-08-03T14:50:32.222Z,25.68
2022-08-03T14:52:31.698Z,25.56
2022-08-03T14:55:38.423Z,25.64
2022-08-03T14:58:40.947Z,25.60
2022-08-03T15:02:04.973Z,25.52
2022-08-03T15:05:05.486Z,25.48
2022-08-03T15:08:09.275Z,25.45
2022-08-03T15:11:11.541Z,25.48
2022-08-03T15:14:14.720Z,25.27
2022-08-03T15:17:16.725Z,25.17
2022-08-03T15:20:28.745Z,25.14
2022-08-03T15:23:38.378Z,25.05
2022-08-03T15:26:41.750Z,25.04
2022-08-03T15:30:06.672Z,25.08
2022-08-03T15:33:06.611Z,25.06
2022-08-03T15:36:08.459Z,25.01
2022-08-03T15:39:11.538Z,25.00
2022-08-03T15:42:13.503Z,24.96
2022-08-03T15:45:17.876Z,24.91
2022-08-03T15:48:26.438Z,24.82
2022-08-03T15:51:28.521Z,24.68
2022-08-03T15:54:30.460Z,24.62
2022-08-03T15:57:32.405Z,24.58
2022-08-03T16:00:34.297Z,24.52
2022-08-03T16:03:36.157Z,24.46
2022-08-03T16:06:39.255Z,24.42
2022-08-03T16:09:43.846Z,24.38
2022-08-03T16:12:47.065Z,24.36
2022-08-03T16:15:59.797Z,24.39
2022-08-03T16:19:05.335Z,24.22
2022-08-03T16:22:08.209Z,24.35
2022-08-03T16:25:13.996Z,24.35
2022-08-03T16:28:19.253Z,24.35
2022-08-03T16:31:22.620Z,24.35
2022-08-03T16:34:24.823Z,24.39
2022-08-03T16:37:42.905Z,24.40
2022-08-03T16:40:52.299Z,24.29
2022-08-03T16:43:54.341Z,24.19
2022-08-03T16:46:56.720Z,24.13
2022-08-03T16:50:00.512Z,24.03
2022-08-03T16:53:09.321Z,23.91
2022-08-03T16:56:12.743Z,23.84
2022-08-03T16:59:14.810Z,23.76
2022-08-03T17:02:26.261Z,23.69
2022-08-03T17:05:43.574Z,23.48
2022-08-03T17:08:55.396Z,23.48
2022-08-03T17:11:57.619Z,23.41
2022-08-03T17:14:59.431Z,23.35
2022-08-03T17:18:09.016Z,23.35
2022-08-03T17:21:12.042Z,23.32
2022-08-03T17:24:23.080Z,23.34
2022-08-03T17:28:50.816Z,23.33
2022-08-03T17:31:22.891Z,23.26
2022-08-03T17:34:32.453Z,23.18
2022-08-03T17:37:58.638Z,23.18
2022-08-03T17:40:57.464Z,23.13
2022-08-03T17:44:15.491Z,23.13
2022-08-03T17:47:23.174Z,23.08
2022-08-03T17:50:41.451Z,23.07
2022-08-03T17:54:02.363Z,23.25
2022-08-03T17:58:02.630Z,23.51
2022-08-03T18:01:59.299Z,23.67
2022-08-03T18:05:02.559Z,23.90
2022-08-03T18:08:29.907Z,23.89
2022-08-03T18:11:37.199Z,23.81
2022-08-03T18:15:01.208Z,23.80
2022-08-03T18:18:10.567Z,23.92
2022-08-03T18:21:16.901Z,23.92
2022-08-03T18:24:24.050Z,24.01
2022-08-03T18:27:42.821Z,24.05
2022-08-03T18:30:54.369Z,24.05
2022-08-03T18:34:19.465Z,24.13
2022-08-03T18:37:30.043Z,24.13
2022-08-03T18:40:48.486Z,24.18
2022-08-03T18:44:07.310Z,24.15
2022-08-03T18:47:51.915Z,24.17
2022-08-03T18:51:24.106Z,24.20
2022-08-03T18:55:02.309Z,24.19
2022-08-03T18:58:20.514Z,24.16
2022-08-03T19:02:00.852Z,24.11
2022-08-03T19:05:16.502Z,24.08
2022-08-03T19:08:36.136Z,24.18
2022-08-03T19:12:13.215Z,24.20
2022-08-03T19:18:49.109Z,24.21
2022-08-03T19:21:52.237Z,24.27
2022-08-03T19:24:57.964Z,24.15
2022-08-03T19:28:03.528Z,23.93
2022-08-03T19:31:10.513Z,23.70
2022-08-03T19:34:15.664Z,23.54
2022-08-03T19:37:21.980Z,23.44
2022-08-03T19:40:28.541Z,23.35
2022-08-03T19:43:49.291Z,23.26
2022-08-03T19:47:05.291Z,23.17
2022-08-03T19:50:14.166Z,23.11
2022-08-03T19:53:17.381Z,23.07
2022-08-03T19:56:24.506Z,23.05
2022-08-03T19:59:30.609Z,23.01
2022-08-03T20:02:34.850Z,22.96
2022-08-03T20:05:45.173Z,22.92
2022-08-03T20:08:54.194Z,22.92
2022-08-03T20:11:57.589Z,22.89
2022-08-03T20:15:00.964Z,22.90
2022-08-03T20:18:02.963Z,22.87
2022-08-03T20:21:14.762Z,22.86
2022-08-03T20:24:40.578Z,22.86
2022-08-03T20:28:07.728Z,22.83
2022-08-03T20:31:11.164Z,22.84
2022-08-03T20:34:13.017Z,22.84
2022-08-03T20:37:19.769Z,22.83
2022-08-03T20:40:22.440Z,22.74
2022-08-03T20:43:29.398Z,22.76
2022-08-03T20:46:46.484Z,22.75
2022-08-03T20:49:54.301Z,22.75
2022-08-03T20:52:56.435Z,22.68
2022-08-03T20:56:02.369Z,22.58
2022-08-03T20:59:07.075Z,22.56
2022-08-03T21:02:19.630Z,22.54
2022-08-03T21:05:48.413Z,22.55
2022-08-03T21:08:57.536Z,22.53
2022-08-03T21:12:04.538Z,22.54
2022-08-03T21:13:10.856Z,24.19
2022-08-03T21:15:09.601Z,22.53
2022-08-03T21:18:42.786Z,22.54
2022-08-03T21:21:46.738Z,22.50
2022-08-03T21:24:55.841Z,22.51
2022-08-03T21:27:59.180Z,22.47
2022-08-03T21:31:01.786Z,22.43
2022-08-03T21:34:05.279Z,22.39
2022-08-03T21:37:07.400Z,22.35
2022-08-03T21:40:12.177Z,22.32
2022-08-03T21:43:14.213Z,22.32
2022-08-03T21:46:19.476Z,22.30
2022-08-03T21:50:02.717Z,22.34
2022-08-03T21:52:47.464Z,22.35
2022-08-03T21:55:58.821Z,22.29
2022-08-03T21:59:07.972Z,22.28
2022-08-03T22:02:13.843Z,22.22
2022-08-03T22:05:42.935Z,22.20
2022-08-03T22:08:47.376Z,22.16
2022-08-03T22:11:54.132Z,22.14
2022-08-03T22:15:00.801Z,22.13
2022-08-03T22:18:05.782Z,22.10
2022-08-03T22:21:11.657Z,22.07
2022-08-03T22:24:18.761Z,22.03
2022-08-03T22:27:32.709Z,22.01
2022-08-03T22:30:35.368Z,21.97
2022-08-03T22:33:38.500Z,21.96
2022-08-03T22:36:40.986Z,21.93
2022-08-03T22:39:43.844Z,21.88
2022-08-03T22:42:46.278Z,21.83
2022-08-03T22:46:10.239Z,21.82
2022-08-03T22:49:13.664Z,21.76
2022-08-03T22:52:16.734Z,21.73
2022-08-03T22:55:24.861Z,21.69
2022-08-03T22:58:27.086Z,21.69
2022-08-03T23:01:30.023Z,21.65
2022-08-03T23:04:34.053Z,21.67
2022-08-03T23:07:38.530Z,21.65
2022-08-03T23:10:46.513Z,21.61
2022-08-03T23:13:53.894Z,21.57
2022-08-03T23:16:56.801Z,21.53
2022-08-03T23:20:04.912Z,21.52
2022-08-03T23:23:09.746Z,21.51
2022-08-03T23:26:13.827Z,21.52
2022-08-03T23:29:17.180Z,21.54
2022-08-03T23:32:21.099Z,21.51
2022-08-03T23:36:28.961Z,21.44
2022-08-03T23:39:04.546Z,21.44
2022-08-03T23:42:06.913Z,21.44
2022-08-03T23:45:09.281Z,21.43
2022-08-03T23:48:12.456Z,21.47
2022-08-03T23:51:30.784Z,21.46
2022-08-03T23:54:52.515Z,21.49
2022-08-03T23:58:19.499Z,21.44
